Baden, Canada
Current Conditions -  °F | °C
As of 5:00 AM on Friday 31 Oct 2014 (Local Time) from CYKF Reporting Station
Light Rain Light Rain  
Wind Chill: 39°   Ceiling: 2500
Heat Index: 39°   Visibility: 8mi
Dew Point: 37°   Wind: 3mph
Humidity: 93%   Direction: 140°SE
Pressure: 29.94"   Gusts: NA
Location:  43.4°N, 80.67°W
Report Text: CYKF 310900Z AUTO 14003KT 8SM -RA BKN025 OVC049 04/03 A2994 RMK SLP144
Loading
Personal Weather Stations






























Interactive Weather Map
Tropical Storm Tracking
New forecast layout! Learn more

10-Day Weather Forecast

Advertisements
Track Severe Weather on mobile